Time,TemperatureF,DewpointF,PressureIn,WindDirection,WindDirectionDegrees,WindSpeedMPH,WindSpeedGustMPH,Humidity,HourlyPrecipIn,Conditions,Clouds,dailyrainin,SoftwareType,DateUTC
2013-03-01 00:07:00,29.0,21.7,30.29,NW,323,0.0,0.0,74,0.00,,,0.00,Wunderground v.1.15,2013-03-01 06:07:00,
2013-03-01 00:17:00,29.0,21.7,30.29,NW,323,0.0,0.0,74,0.00,,,0.00,Wunderground v.1.15,2013-03-01 06:17:00,
2013-03-01 00:27:00,28.7,21.8,30.29,NW,323,0.0,0.0,75,0.00,,,0.00,Wunderground v.1.15,2013-03-01 06:27:00,
2013-03-01 00:37:00,28.6,21.7,30.29,NW,323,0.0,0.0,75,0.00,,,0.00,Wunderground v.1.15,2013-03-01 06:37:00,
2013-03-01 00:47:00,28.6,21.7,30.29,NW,323,0.0,0.0,75,0.00,,,0.00,Wunderground v.1.15,2013-03-01 06:47:00,
2013-03-01 00:57:00,28.3,21.4,30.29,NW,323,0.0,0.0,75,0.00,,,0.00,Wunderground v.1.15,2013-03-01 06:57:00,
2013-03-01 01:07:00,28.1,21.2,30.29,NW,323,0.0,0.0,75,0.00,,,0.00,Wunderground v.1.15,2013-03-01 07:07:00,
2013-03-01 01:17:00,28.1,21.5,30.29,NW,323,0.0,0.0,76,0.00,,,0.00,Wunderground v.1.15,2013-03-01 07:17:00,
2013-03-01 01:26:00,28.0,21.4,30.29,NW,323,0.0,0.0,76,0.00,,,0.00,Wunderground v.1.15,2013-03-01 07:26:00,
2013-03-01 01:37:00,27.7,21.1,30.29,NW,323,0.0,0.0,76,0.00,,,0.00,Wunderground v.1.15,2013-03-01 07:37:00,
2013-03-01 01:46:00,27.5,20.9,30.29,NW,323,0.0,0.0,76,0.00,,,0.00,Wunderground v.1.15,2013-03-01 07:46:00,
2013-03-01 01:56:00,27.7,21.4,30.29,NW,323,0.0,0.0,77,0.00,,,0.00,Wunderground v.1.15,2013-03-01 07:56:00,
2013-03-01 02:07:00,27.7,21.4,30.29,NW,323,0.0,2.0,77,0.00,,,0.00,Wunderground v.1.15,2013-03-01 08:07:00,
2013-03-01 02:17:00,27.7,21.1,30.29,NW,323,1.0,1.0,76,0.00,,,0.00,Wunderground v.1.15,2013-03-01 08:17:00,
2013-03-01 02:26:00,27.2,20.9,30.29,NW,323,0.0,0.0,77,0.00,,,0.00,Wunderground v.1.15,2013-03-01 08:26:00,
2013-03-01 02:37:00,27.2,20.9,30.29,NW,323,0.0,0.0,77,0.00,,,0.00,Wunderground v.1.15,2013-03-01 08:37:00,
2013-03-01 02:46:00,26.9,20.7,30.29,NW,323,0.0,0.0,77,0.00,,,0.00,Wunderground v.1.15,2013-03-01 08:46:00,
2013-03-01 02:56:00,26.8,20.9,30.29,NW,323,0.0,2.0,78,0.00,,,0.00,Wunderground v.1.15,2013-03-01 08:56:00,
2013-03-01 03:07:00,26.8,20.9,30.29,NW,323,1.0,1.0,78,0.00,,,0.00,Wunderground v.1.15,2013-03-01 09:07:00,
2013-03-01 03:17:00,27.2,21.2,30.29,NW,323,1.0,1.0,78,0.00,,,0.00,Wunderground v.1.15,2013-03-01 09:17:00,
2013-03-01 03:27:00,27.1,20.8,30.29,NW,323,0.0,0.0,77,0.00,,,0.00,Wunderground v.1.15,2013-03-01 09:27:00,
2013-03-01 03:37:00,26.5,20.6,30.29,NW,323,0.0,0.0,78,0.00,,,0.00,Wunderground v.1.15,2013-03-01 09:37:00,
2013-03-01 03:47:00,26.5,20.9,30.29,NW,323,0.0,0.0,79,0.00,,,0.00,Wunderground v.1.15,2013-03-01 09:47:00,
2013-03-01 03:57:00,26.5,20.9,30.29,NW,323,0.0,0.0,79,0.00,,,0.00,Wunderground v.1.15,2013-03-01 09:57:00,
2013-03-01 04:07:00,26.2,20.6,30.29,NW,323,1.0,1.0,79,0.00,,,0.00,Wunderground v.1.15,2013-03-01 10:07:00,
2013-03-01 04:17:00,25.9,20.3,30.29,NW,323,0.0,0.0,79,0.00,,,0.00,Wunderground v.1.15,2013-03-01 10:17:00,
2013-03-01 04:27:00,25.6,20.0,30.29,NW,323,0.0,0.0,79,0.00,,,0.00,Wunderground v.1.15,2013-03-01 10:27:00,
2013-03-01 04:37:00,25.5,19.9,30.29,NW,323,0.0,0.0,79,0.00,,,0.00,Wunderground v.1.15,2013-03-01 10:37:00,
2013-03-01 04:47:00,25.2,19.9,30.29,NW,323,0.0,0.0,80,0.00,,,0.00,Wunderground v.1.15,2013-03-01 10:47:00,
2013-03-01 04:57:00,24.9,19.6,30.29,NW,323,0.0,0.0,80,0.00,,,0.00,Wunderground v.1.15,2013-03-01 10:57:00,
2013-03-01 05:07:00,24.7,19.7,30.29,NW,323,0.0,0.0,81,0.00,,,0.00,Wunderground v.1.15,2013-03-01 11:07:00,
2013-03-01 05:16:00,24.6,19.6,30.29,NW,323,0.0,0.0,81,0.00,,,0.00,Wunderground v.1.15,2013-03-01 11:16:00,
2013-03-01 05:27:00,24.6,19.6,30.29,NW,323,0.0,0.0,81,0.00,,,0.00,Wunderground v.1.15,2013-03-01 11:27:00,
2013-03-01 05:37:00,24.4,19.4,30.30,NW,323,0.0,0.0,81,0.00,,,0.00,Wunderground v.1.15,2013-03-01 11:37:00,
2013-03-01 05:47:00,24.3,19.6,30.30,NW,323,0.0,0.0,82,0.00,,,0.00,Wunderground v.1.15,2013-03-01 11:47:00,
2013-03-01 05:57:00,24.3,19.6,30.30,NW,323,0.0,0.0,82,0.00,,,0.00,Wunderground v.1.15,2013-03-01 11:57:00,
2013-03-01 06:07:00,24.0,19.3,30.31,NW,323,0.0,0.0,82,0.00,,,0.00,Wunderground v.1.15,2013-03-01 12:07:00,
2013-03-01 06:16:00,24.1,19.4,30.31,NW,323,0.0,0.0,82,0.00,,,0.00,Wunderground v.1.15,2013-03-01 12:16:00,
2013-03-01 06:27:00,24.0,19.3,30.31,NW,323,0.0,0.0,82,0.00,,,0.00,Wunderground v.1.15,2013-03-01 12:27:00,
2013-03-01 06:37:00,23.7,19.0,30.31,NW,323,0.0,0.0,82,0.00,,,0.00,Wunderground v.1.15,2013-03-01 12:37:00,
2013-03-01 06:47:00,23.5,18.8,30.32,NW,323,0.0,0.0,82,0.00,,,0.00,Wunderground v.1.15,2013-03-01 12:47:00,
2013-03-01 06:57:00,23.4,18.7,30.32,NW,323,0.0,0.0,82,0.00,,,0.00,Wunderground v.1.15,2013-03-01 12:57:00,
2013-03-01 07:07:00,23.2,18.8,30.33,NW,323,0.0,0.0,83,0.00,,,0.00,Wunderground v.1.15,2013-03-01 13:07:00,
2013-03-01 07:16:00,23.2,18.8,30.34,NW,323,0.0,0.0,83,0.00,,,0.00,Wunderground v.1.15,2013-03-01 13:16:00,
2013-03-01 07:27:00,23.4,19.0,30.34,NW,323,0.0,0.0,83,0.00,,,0.00,Wunderground v.1.15,2013-03-01 13:27:00,
2013-03-01 07:37:00,24.1,20.0,30.34,NW,323,0.0,0.0,84,0.00,,,0.00,Wunderground v.1.15,2013-03-01 13:37:00,
2013-03-01 07:46:00,25.2,21.0,30.34,NW,323,0.0,0.0,84,0.00,,,0.00,Wunderground v.1.15,2013-03-01 13:46:00,
2013-03-01 07:57:00,26.9,22.4,30.34,NW,323,0.0,0.0,83,0.00,,,0.00,Wunderground v.1.15,2013-03-01 13:57:00,
2013-03-01 08:07:00,29.0,23.9,30.35,NW,323,0.0,0.0,81,0.00,,,0.00,Wunderground v.1.15,2013-03-01 14:07:00,
2013-03-01 08:17:00,31.1,25.7,30.35,NW,323,0.0,0.0,80,0.00,,,0.00,Wunderground v.1.15,2013-03-01 14:17:00,
2013-03-01 08:27:00,33.7,26.6,30.35,NW,323,0.0,0.0,75,0.00,,,0.00,Wunderground v.1.15,2013-03-01 14:27:00,
2013-03-01 08:37:00,36.8,27.2,30.35,NW,323,0.0,0.0,68,0.00,,,0.00,Wunderground v.1.15,2013-03-01 14:37:00,
2013-03-01 08:47:00,39.7,27.7,30.35,NW,323,0.0,0.0,62,0.00,,,0.00,Wunderground v.1.15,2013-03-01 14:47:00,
2013-03-01 08:57:00,42.8,28.2,30.35,NW,323,0.0,0.0,56,0.00,,,0.00,Wunderground v.1.15,2013-03-01 14:57:00,
2013-03-01 09:07:00,46.3,28.7,30.34,NW,323,0.0,0.0,50,0.00,,,0.00,Wunderground v.1.15,2013-03-01 15:07:00,
2013-03-01 09:17:00,49.4,28.9,30.34,NW,323,0.0,0.0,45,0.00,,,0.00,Wunderground v.1.15,2013-03-01 15:17:00,
2013-03-01 09:27:00,50.7,26.0,30.34,West,271,1.0,2.0,38,0.00,,,0.00,Wunderground v.1.15,2013-03-01 15:27:00,
2013-03-01 09:37:00,52.4,26.9,30.33,SW,220,2.0,3.0,37,0.00,,,0.00,Wunderground v.1.15,2013-03-01 15:37:00,
2013-03-01 09:47:00,52.7,25.8,30.33,South,169,3.0,4.0,35,0.00,,,0.00,Wunderground v.1.15,2013-03-01 15:47:00,
2013-03-01 09:57:00,53.1,25.4,30.33,SSE,161,4.0,6.0,34,0.00,,,0.00,Wunderground v.1.15,2013-03-01 15:57:00,
2013-03-01 10:07:00,54.1,26.3,30.32,SSE,148,4.0,6.0,34,0.00,,,0.00,Wunderground v.1.15,2013-03-01 16:07:00,
2013-03-01 10:16:00,55.2,25.8,30.32,SSE,151,4.0,5.0,32,0.00,,,0.00,Wunderground v.1.15,2013-03-01 16:16:00,
2013-03-01 10:26:00,55.3,25.1,30.32,South,170,4.0,5.0,31,0.00,,,0.00,Wunderground v.1.15,2013-03-01 16:26:00,
2013-03-01 10:37:00,55.6,23.0,30.32,SSE,159,4.0,4.0,28,0.00,,,0.00,Wunderground v.1.15,2013-03-01 16:37:00,
2013-03-01 10:46:00,56.1,22.5,30.31,SSW,194,3.0,3.0,27,0.00,,,0.00,Wunderground v.1.15,2013-03-01 16:46:00,
2013-03-01 10:57:00,57.1,23.4,30.31,SSE,159,3.0,4.0,27,0.00,,,0.00,Wunderground v.1.15,2013-03-01 16:57:00,
2013-03-01 11:07:00,57.7,24.8,30.31,SE,129,2.0,3.0,28,0.00,,,0.00,Wunderground v.1.15,2013-03-01 17:07:00,
2013-03-01 11:17:00,58.3,23.5,30.30,SSE,152,2.0,2.0,26,0.00,,,0.00,Wunderground v.1.15,2013-03-01 17:17:00,
2013-03-01 11:27:00,58.6,22.8,30.30,SSE,161,3.0,5.0,25,0.00,,,0.00,Wunderground v.1.15,2013-03-01 17:27:00,
2013-03-01 11:37:00,59.4,22.6,30.30,SSE,155,2.0,2.0,24,0.00,,,0.00,Wunderground v.1.15,2013-03-01 17:37:00,
2013-03-01 11:47:00,59.5,22.6,30.29,East,100,3.0,3.0,24,0.00,,,0.00,Wunderground v.1.15,2013-03-01 17:47:00,
2013-03-01 11:56:00,60.1,22.1,30.29,ESE,116,1.0,2.0,23,0.00,,,0.00,Wunderground v.1.15,2013-03-01 17:56:00,
2013-03-01 12:07:00,60.1,22.1,30.29,NE,53,1.0,4.0,23,0.00,,,0.00,Wunderground v.1.15,2013-03-01 18:07:00,
2013-03-01 12:17:00,60.0,22.0,30.27,South,188,2.0,3.0,23,0.00,,,0.00,Wunderground v.1.15,2013-03-01 18:17:00,
2013-03-01 12:27:00,60.3,22.3,30.27,North,9,3.0,3.0,23,0.00,,,0.00,Wunderground v.1.15,2013-03-01 18:27:00,
2013-03-01 12:37:00,61.1,21.9,30.27,SE,140,1.0,1.0,22,0.00,,,0.00,Wunderground v.1.15,2013-03-01 18:37:00,
2013-03-01 12:47:00,61.7,21.3,30.25,WNW,284,2.0,5.0,21,0.00,,,0.00,Wunderground v.1.15,2013-03-01 18:47:00,
2013-03-01 12:57:00,61.7,20.2,30.25,WSW,244,7.0,13.0,20,0.00,,,0.00,Wunderground v.1.15,2013-03-01 18:57:00,
2013-03-01 13:07:00,62.2,21.7,30.25,WSW,238,6.0,6.0,21,0.00,,,0.00,Wunderground v.1.15,2013-03-01 19:07:00,
2013-03-01 13:16:00,62.5,20.8,30.24,SSW,197,4.0,9.0,20,0.00,,,0.00,Wunderground v.1.15,2013-03-01 19:16:00,
2013-03-01 13:26:00,62.6,22.1,30.24,WNW,296,5.0,5.0,21,0.00,,,0.00,Wunderground v.1.15,2013-03-01 19:26:00,
2013-03-01 13:37:00,62.8,21.1,30.24,NW,326,7.0,7.0,20,0.00,,,0.00,Wunderground v.1.15,2013-03-01 19:37:00,
2013-03-01 13:47:00,63.1,21.3,30.23,West,277,7.0,13.0,20,0.00,,,0.00,Wunderground v.1.15,2013-03-01 19:47:00,
2013-03-01 13:57:00,62.3,21.8,30.23,West,265,9.0,9.0,21,0.00,,,0.00,Wunderground v.1.15,2013-03-01 19:57:00,
2013-03-01 14:07:00,62.9,21.2,30.22,SSW,209,4.0,4.0,20,0.00,,,0.00,Wunderground v.1.15,2013-03-01 20:07:00,
2013-03-01 14:17:00,63.7,20.6,30.21,NW,306,4.0,11.0,19,0.00,,,0.00,Wunderground v.1.15,2013-03-01 20:17:00,
2013-03-01 14:26:00,63.6,20.5,30.21,West,277,7.0,7.0,19,0.00,,,0.00,Wunderground v.1.15,2013-03-01 20:26:00,
2013-03-01 14:37:00,63.7,19.3,30.20,WNW,292,10.0,10.0,18,0.00,,,0.00,Wunderground v.1.15,2013-03-01 20:37:00,
2013-03-01 14:46:00,64.5,20.0,30.20,NW,309,10.0,10.0,18,0.00,,,0.00,Wunderground v.1.15,2013-03-01 20:46:00,
2013-03-01 14:56:00,64.4,19.9,30.20,West,273,10.0,13.0,18,0.00,,,0.00,Wunderground v.1.15,2013-03-01 20:56:00,
2013-03-01 15:07:00,64.1,19.7,30.19,WNW,288,12.0,12.0,18,0.00,,,0.00,Wunderground v.1.15,2013-03-01 21:07:00,
2013-03-01 15:17:00,64.4,19.9,30.19,West,260,10.0,10.0,18,0.00,,,0.00,Wunderground v.1.15,2013-03-01 21:17:00,
2013-03-01 15:27:00,64.9,20.3,30.19,WSW,244,7.0,15.0,18,0.00,,,0.00,Wunderground v.1.15,2013-03-01 21:27:00,
2013-03-01 15:37:00,65.8,19.7,30.18,West,272,6.0,6.0,17,0.00,,,0.00,Wunderground v.1.15,2013-03-01 21:37:00,
2013-03-01 15:46:00,64.9,20.3,30.17,West,277,10.0,14.0,18,0.00,,,0.00,Wunderground v.1.15,2013-03-01 21:46:00,
2013-03-01 15:56:00,65.2,20.6,30.17,NW,311,9.0,9.0,18,0.00,,,0.00,Wunderground v.1.15,2013-03-01 21:56:00,
2013-03-01 16:07:00,65.4,19.4,30.18,SW,230,9.0,9.0,17,0.00,,,0.00,Wunderground v.1.15,2013-03-01 22:07:00,
2013-03-01 16:17:00,65.7,21.0,30.17,West,280,8.0,10.0,18,0.00,,,0.00,Wunderground v.1.15,2013-03-01 22:17:00,
2013-03-01 16:27:00,65.8,18.3,30.17,West,270,11.0,11.0,16,0.00,,,0.00,Wunderground v.1.15,2013-03-01 22:27:00,
2013-03-01 16:37:00,65.7,19.6,30.17,WNW,286,9.0,9.0,17,0.00,,,0.00,Wunderground v.1.15,2013-03-01 22:37:00,
2013-03-01 16:47:00,66.0,19.9,30.18,WNW,285,9.0,11.0,17,0.00,,,0.00,Wunderground v.1.15,2013-03-01 22:47:00,
2013-03-01 16:57:00,66.0,19.9,30.18,North,355,8.0,9.0,17,0.00,,,0.00,Wunderground v.1.15,2013-03-01 22:57:00,
2013-03-01 17:07:00,65.4,18.0,30.19,NW,320,9.0,10.0,16,0.00,,,0.00,Wunderground v.1.15,2013-03-01 23:07:00,
2013-03-01 17:17:00,64.4,17.2,30.19,NW,304,9.0,9.0,16,0.00,,,0.00,Wunderground v.1.15,2013-03-01 23:17:00,
2013-03-01 17:26:00,63.9,18.2,30.19,NW,309,5.0,7.0,17,0.00,,,0.00,Wunderground v.1.15,2013-03-01 23:26:00,
2013-03-01 17:37:00,63.4,19.1,30.20,NW,325,6.0,11.0,18,0.00,,,0.00,Wunderground v.1.15,2013-03-01 23:37:00,
2013-03-01 17:47:00,62.6,17.1,30.20,NW,324,5.0,6.0,17,0.00,,,0.00,Wunderground v.1.15,2013-03-01 23:47:00,
2013-03-01 17:57:00,62.6,18.4,30.20,NW,310,6.0,6.0,18,0.00,,,0.00,Wunderground v.1.15,2013-03-01 23:57:00,
2013-03-01 18:07:00,62.2,18.1,30.21,NW,319,5.0,5.0,18,0.00,,,0.00,Wunderground v.1.15,2013-03-02 00:07:00,
2013-03-01 18:17:00,61.7,17.7,30.22,NNW,333,5.0,5.0,18,0.00,,,0.00,Wunderground v.1.15,2013-03-02 00:17:00,
2013-03-01 18:27:00,60.7,19.3,30.22,North,355,4.0,4.0,20,0.00,,,0.00,Wunderground v.1.15,2013-03-02 00:27:00,
2013-03-01 18:37:00,59.5,19.5,30.23,North,355,3.0,3.0,21,0.00,,,0.00,Wunderground v.1.15,2013-03-02 00:37:00,
2013-03-01 18:46:00,58.5,20.8,30.23,North,355,2.0,2.0,23,0.00,,,0.00,Wunderground v.1.15,2013-03-02 00:46:00,
2013-03-01 18:56:00,57.2,20.7,30.23,North,355,1.0,1.0,24,0.00,,,0.00,Wunderground v.1.15,2013-03-02 00:56:00,
2013-03-01 19:07:00,56.4,21.0,30.25,North,355,0.0,0.0,25,0.00,,,0.00,Wunderground v.1.15,2013-03-02 01:07:00,
2013-03-01 19:17:00,55.8,21.4,30.25,ENE,61,0.0,2.0,26,0.00,,,0.00,Wunderground v.1.15,2013-03-02 01:17:00,
2013-03-01 19:27:00,54.7,23.8,30.25,ENE,57,2.0,2.0,30,0.00,,,0.00,Wunderground v.1.15,2013-03-02 01:27:00,
2013-03-01 19:37:00,53.8,25.3,30.25,ENE,57,0.0,0.0,33,0.00,,,0.00,Wunderground v.1.15,2013-03-02 01:37:00,
2013-03-01 19:47:00,52.7,25.8,30.26,ENE,57,0.0,0.0,35,0.00,,,0.00,Wunderground v.1.15,2013-03-02 01:47:00,
2013-03-01 19:56:00,51.3,26.5,30.26,ENE,57,0.0,0.0,38,0.00,,,0.00,Wunderground v.1.15,2013-03-02 01:56:00,
2013-03-01 20:07:00,50.1,26.1,30.27,ENE,57,0.0,0.0,39,0.00,,,0.00,Wunderground v.1.15,2013-03-02 02:07:00,
2013-03-01 20:17:00,48.8,26.7,30.27,ENE,57,0.0,0.0,42,0.00,,,0.00,Wunderground v.1.15,2013-03-02 02:17:00,
2013-03-01 20:27:00,47.0,26.7,30.27,ENE,57,0.0,0.0,45,0.00,,,0.00,Wunderground v.1.15,2013-03-02 02:27:00,
2013-03-01 20:37:00,45.3,26.7,30.28,ENE,57,0.0,0.0,48,0.00,,,0.00,Wunderground v.1.15,2013-03-02 02:37:00,
2013-03-01 20:47:00,44.5,26.5,30.30,ENE,57,1.0,2.0,49,0.00,,,0.00,Wunderground v.1.15,2013-03-02 02:47:00,
2013-03-01 20:57:00,44.5,26.5,30.30,ENE,57,1.0,1.0,49,0.00,,,0.00,Wunderground v.1.15,2013-03-02 02:57:00,
2013-03-01 21:07:00,46.6,25.8,30.30,North,349,2.0,2.0,44,0.00,,,0.00,Wunderground v.1.15,2013-03-02 03:07:00,
2013-03-01 21:16:00,48.8,25.5,30.31,NNW,330,4.0,4.0,40,0.00,,,0.00,Wunderground v.1.15,2013-03-02 03:16:00,
2013-03-01 21:27:00,50.1,25.5,30.31,NNW,345,5.0,6.0,38,0.00,,,0.00,Wunderground v.1.15,2013-03-02 03:27:00,
2013-03-01 21:37:00,51.0,25.6,30.32,NW,317,6.0,9.0,37,0.00,,,0.00,Wunderground v.1.15,2013-03-02 03:37:00,
2013-03-01 21:47:00,51.0,26.3,30.31,NNW,339,6.0,6.0,38,0.00,,,0.00,Wunderground v.1.15,2013-03-02 03:47:00,
2013-03-01 21:57:00,50.4,26.3,30.31,NNW,327,3.0,3.0,39,0.00,,,0.00,Wunderground v.1.15,2013-03-02 03:57:00,
2013-03-01 22:07:00,49.7,26.3,30.32,NNW,327,2.0,2.0,40,0.00,,,0.00,Wunderground v.1.15,2013-03-02 04:07:00,
2013-03-01 22:16:00,49.0,26.3,30.32,NNW,344,2.0,2.0,41,0.00,,,0.00,Wunderground v.1.15,2013-03-02 04:16:00,
2013-03-01 22:26:00,48.2,26.7,30.32,NNW,344,2.0,2.0,43,0.00,,,0.00,Wunderground v.1.15,2013-03-02 04:26:00,
2013-03-01 22:37:00,47.8,26.9,30.31,NNW,344,2.0,2.0,44,0.00,,,0.00,Wunderground v.1.15,2013-03-02 04:37:00,
2013-03-01 22:47:00,47.0,26.7,30.32,NNW,344,1.0,1.0,45,0.00,,,0.00,Wunderground v.1.15,2013-03-02 04:47:00,
2013-03-01 22:56:00,46.4,26.7,30.32,NNW,344,0.0,2.0,46,0.00,,,0.00,Wunderground v.1.15,2013-03-02 04:56:00,
2013-03-01 23:07:00,45.6,27.0,30.32,NNW,344,0.0,0.0,48,0.00,,,0.00,Wunderground v.1.15,2013-03-02 05:07:00,
2013-03-01 23:17:00,44.8,26.8,30.32,NNW,344,1.0,1.0,49,0.00,,,0.00,Wunderground v.1.15,2013-03-02 05:17:00,
2013-03-01 23:27:00,44.3,27.3,30.32,NNW,344,1.0,1.0,51,0.00,,,0.00,Wunderground v.1.15,2013-03-02 05:27:00,
2013-03-01 23:37:00,43.4,26.9,30.32,NNW,344,1.0,1.0,52,0.00,,,0.00,Wunderground v.1.15,2013-03-02 05:37:00,
2013-03-01 23:47:00,42.7,27.2,30.32,NNW,344,1.0,1.0,54,0.00,,,0.00,Wunderground v.1.15,2013-03-02 05:47:00,
2013-03-01 23:56:00,42.3,27.3,30.32,NNW,344,1.0,1.0,55,0.00,,,0.00,Wunderground v.1.15,2013-03-02 05:56:00,